Time;durP1;ratioP1;P1;durP2;ratioP2;P2;SDS_P1;SDS_P2;PMS_P1;PMS_P2;Temp;Humidity;BMP_temperature;BMP_pressure;BME280_temperature;BME280_humidity;BME280_pressure;Samples;Min_cycle;Max_cycle;Signal;HPM_P1;HPM_P2
2023/10/08 00:01:42;;;;;;;0.45;0.40;;;18.10;41.20;;;;;;6156415;23;20283;-83
2023/10/08 00:04:10;;;;;;;0.80;0.57;;;18.10;41.20;;;;;;6157646;23;20205;-82
2023/10/08 00:06:37;;;;;;;0.82;0.55;;;18.10;41.00;;;;;;6156311;23;20167;-83
2023/10/08 00:09:08;;;;;;;0.60;0.55;;;18.10;41.20;;;;;;6130437;23;20684;-83
2023/10/08 00:11:37;;;;;;;0.70;0.50;;;18.20;41.30;;;;;;6132826;23;20150;-82
2023/10/08 00:14:05;;;;;;;0.57;0.55;;;18.00;41.00;;;;;;6106726;23;20214;-82
2023/10/08 00:16:33;;;;;;;0.52;0.38;;;18.10;41.20;;;;;;6131914;23;20136;-83
2023/10/08 00:19:08;;;;;;;0.55;0.45;;;18.10;41.20;;;;;;6157597;23;20171;-84
2023/10/08 00:21:36;;;;;;;0.93;0.60;;;18.10;41.40;;;;;;6133469;23;20563;-84
2023/10/08 00:24:06;;;;;;;0.40;0.40;;;18.10;41.40;;;;;;6107373;23;20174;-83
2023/10/08 00:26:34;;;;;;;0.40;0.40;;;18.10;41.40;;;;;;6107420;23;20231;-83
2023/10/08 00:31:40;;;;;;;0.80;0.60;;;18.00;41.40;;;;;;6111784;23;20136;-83
2023/10/08 00:34:08;;;;;;;0.45;0.30;;;18.10;41.40;;;;;;6157301;23;20139;-83
2023/10/08 00:36:35;;;;;;;0.50;0.38;;;18.10;41.40;;;;;;6107845;23;20139;-84
2023/10/08 00:39:07;;;;;;;0.80;0.50;;;18.20;41.60;;;;;;6130872;23;20171;-83
2023/10/08 00:41:33;;;;;;;0.38;0.38;;;18.10;41.50;;;;;;6107921;23;20147;-83
2023/10/08 00:44:00;;;;;;;0.60;0.40;;;18.10;41.50;;;;;;6131113;23;20140;-83
2023/10/08 00:46:31;;;;;;;0.70;0.40;;;18.10;41.70;;;;;;6107024;23;20158;-82
2023/10/08 00:49:10;;;;;;;0.43;0.40;;;18.10;41.50;;;;;;6107981;23;20539;-82
2023/10/08 00:51:45;;;;;;;0.95;0.50;;;18.10;41.70;;;;;;6113377;23;20139;-82
2023/10/08 00:54:17;;;;;;;1.00;0.50;;;18.00;41.50;;;;;;6081740;23;20217;-83
2023/10/08 00:56:46;;;;;;;0.60;0.40;;;18.10;41.70;;;;;;6085180;23;20153;-83
2023/10/08 00:59:15;;;;;;;0.75;0.40;;;18.10;41.70;;;;;;6083897;23;20238;-83
2023/10/08 01:01:51;;;;;;;0.70;0.50;;;18.10;41.70;;;;;;6106996;23;20568;-82
2023/10/08 01:04:23;;;;;;;0.40;0.40;;;18.10;41.80;;;;;;6110582;23;20132;-82
2023/10/08 01:06:55;;;;;;;0.60;0.50;;;18.10;41.80;;;;;;6085618;23;20177;-83
2023/10/08 01:09:32;;;;;;;0.50;0.40;;;18.10;41.80;;;;;;6085737;23;20147;-82
2023/10/08 01:12:18;;;;;;;0.93;0.60;;;18.10;41.80;;;;;;6132544;23;20182;-83
2023/10/08 01:14:46;;;;;;;0.52;0.50;;;18.10;41.70;;;;;;6157027;23;20131;-84
2023/10/08 01:17:14;;;;;;;1.13;0.50;;;18.10;42.00;;;;;;6134505;23;20191;-83
2023/10/08 01:19:45;;;;;;;0.50;0.40;;;18.10;41.90;;;;;;6155280;23;20198;-82
2023/10/08 01:22:18;;;;;;;0.70;0.40;;;18.10;41.90;;;;;;6155670;23;20564;-83
2023/10/08 01:24:48;;;;;;;0.68;0.45;;;18.10;41.80;;;;;;6155844;23;20152;-82
2023/10/08 01:27:24;;;;;;;0.75;0.60;;;18.10;41.80;;;;;;6132718;23;20137;-82
2023/10/08 01:29:52;;;;;;;0.70;0.50;;;18.10;41.90;;;;;;6133931;23;20147;-83
2023/10/08 01:32:22;;;;;;;0.95;0.57;;;18.10;42.00;;;;;;6131140;23;20171;-82
2023/10/08 01:34:48;;;;;;;0.88;0.50;;;18.10;41.90;;;;;;6132586;23;20143;-83
2023/10/08 01:37:16;;;;;;;0.77;0.50;;;18.00;42.10;;;;;;6132655;23;20139;-83
2023/10/08 01:39:45;;;;;;;0.50;0.50;;;18.10;42.10;;;;;;6109137;23;20179;-83
2023/10/08 01:42:20;;;;;;;0.55;0.47;;;18.10;42.00;;;;;;6156915;23;20139;-83
2023/10/08 01:44:50;;;;;;;0.57;0.43;;;18.10;42.10;;;;;;6111628;23;20146;-82
2023/10/08 01:47:16;;;;;;;0.93;0.52;;;18.00;42.10;;;;;;6107572;23;20151;-83
2023/10/08 01:49:44;;;;;;;0.40;0.30;;;18.10;42.10;;;;;;6156612;23;20132;-82
2023/10/08 01:52:21;;;;;;;0.40;0.40;;;18.10;42.90;;;;;;6156597;23;20543;-83
2023/10/08 01:54:48;;;;;;;0.52;0.40;;;18.10;42.20;;;;;;6084971;23;20151;-83
2023/10/08 01:57:18;;;;;;;0.38;0.38;;;18.10;42.30;;;;;;6156694;23;20135;-83
2023/10/08 01:59:44;;;;;;;0.52;0.40;;;18.10;42.10;;;;;;6106500;23;20187;-83
2023/10/08 02:02:15;;;;;;;0.55;0.40;;;18.10;42.10;;;;;;6107518;23;20136;-83
2023/10/08 02:04:41;;;;;;;0.60;0.43;;;18.00;42.20;;;;;;6107106;23;20148;-84
2023/10/08 02:07:08;;;;;;;0.93;0.50;;;18.10;42.20;;;;;;6132990;23;20154;-84
2023/10/08 02:09:34;;;;;;;0.45;0.32;;;18.00;42.10;;;;;;6132595;23;20136;-83
2023/10/08 02:12:03;;;;;;;0.50;0.50;;;18.00;42.30;;;;;;6132114;23;20213;-83
2023/10/08 02:14:31;;;;;;;0.50;0.40;;;18.00;42.40;;;;;;6156548;23;20178;-83
2023/10/08 02:17:01;;;;;;;0.60;0.40;;;18.00;42.40;;;;;;6157393;23;20341;-83
2023/10/08 02:19:27;;;;;;;1.13;0.60;;;18.10;42.50;;;;;;6131875;23;20219;-82
2023/10/08 02:21:54;;;;;;;0.73;0.60;;;18.00;42.30;;;;;;6106798;23;20479;-82
2023/10/08 02:24:24;;;;;;;0.32;0.30;;;18.00;42.30;;;;;;6100592;23;20152;-83
2023/10/08 02:27:00;;;;;;;0.60;0.45;;;17.90;42.40;;;;;;6053908;23;20182;-82
2023/10/08 02:29:29;;;;;;;0.40;0.40;;;18.00;42.50;;;;;;6062056;23;20579;-83
2023/10/08 02:31:56;;;;;;;0.35;0.35;;;18.00;42.50;;;;;;6064063;23;20207;-83
2023/10/08 02:34:24;;;;;;;0.60;0.50;;;18.00;42.40;;;;;;6088306;23;20152;-83
2023/10/08 02:36:50;;;;;;;0.43;0.40;;;18.00;42.50;;;;;;6061420;23;20223;-82
2023/10/08 02:39:21;;;;;;;0.70;0.40;;;18.00;42.50;;;;;;6079994;23;20242;-83
2023/10/08 02:41:50;;;;;;;0.50;0.40;;;18.00;42.60;;;;;;6041276;23;20200;-84
2023/10/08 02:44:17;;;;;;;0.70;0.40;;;18.00;42.70;;;;;;6087245;23;20152;-84
2023/10/08 02:46:48;;;;;;;0.77;0.50;;;18.00;42.70;;;;;;6063111;23;20144;-84
2023/10/08 02:49:22;;;;;;;0.90;0.50;;;18.00;42.70;;;;;;6063162;23;20163;-84
2023/10/08 02:51:52;;;;;;;0.50;0.40;;;18.00;42.60;;;;;;6064600;23;20233;-84
2023/10/08 02:54:18;;;;;;;0.70;0.50;;;18.00;42.80;;;;;;6064090;23;20188;-84
2023/10/08 02:56:50;;;;;;;0.90;0.50;;;18.00;42.60;;;;;;6114670;23;20182;-84
2023/10/08 02:59:16;;;;;;;0.73;0.43;;;18.00;42.60;;;;;;6045756;23;20183;-84
2023/10/08 03:01:42;;;;;;;1.25;0.70;;;18.00;42.80;;;;;;6090360;23;20213;-84
2023/10/08 03:04:17;;;;;;;0.65;0.50;;;18.00;42.60;;;;;;6115128;23;20155;-84
2023/10/08 03:06:49;;;;;;;0.57;0.40;;;18.00;42.80;;;;;;6144459;23;20158;-83
2023/10/08 03:09:20;;;;;;;0.70;0.50;;;18.00;42.80;;;;;;6050486;23;20222;-83
2023/10/08 03:11:48;;;;;;;0.47;0.40;;;18.00;42.80;;;;;;6121956;23;20534;-84
2023/10/08 03:14:21;;;;;;;0.30;0.30;;;18.00;42.90;;;;;;6099060;23;20211;-83
2023/10/08 03:16:49;;;;;;;1.33;0.60;;;18.10;42.80;;;;;;6151111;23;20139;-83
2023/10/08 03:19:19;;;;;;;0.90;0.50;;;18.00;43.00;;;;;;6151796;23;20196;-84
2023/10/08 03:21:51;;;;;;;0.60;0.40;;;17.90;43.00;;;;;;6152165;23;20158;-83
2023/10/08 03:24:49;;;;;;;0.52;0.43;;;18.00;43.00;;;;;;6079293;23;20154;-83
2023/10/08 03:27:07;;;;;;;0.85;0.50;;;18.00;42.90;;;;;;6159845;23;20728;-84
2023/10/08 03:29:41;;;;;;;0.50;0.30;;;18.00;42.90;;;;;;6128753;23;20162;-83
2023/10/08 03:32:13;;;;;;;0.85;0.50;;;18.00;42.90;;;;;;6154607;23;20134;-83
2023/10/08 03:34:48;;;;;;;0.73;0.40;;;18.00;42.90;;;;;;6176493;23;20131;-84
2023/10/08 03:37:21;;;;;;;0.65;0.57;;;18.00;43.20;;;;;;6078813;23;20176;-84
2023/10/08 03:39:51;;;;;;;0.50;0.45;;;18.00;42.90;;;;;;6152526;23;20182;-84
2023/10/08 03:42:25;;;;;;;0.80;0.55;;;18.00;43.00;;;;;;6152369;23;20210;-83
2023/10/08 03:44:51;;;;;;;0.52;0.40;;;18.00;43.10;;;;;;6128436;23;20213;-83
2023/10/08 03:47:19;;;;;;;1.23;0.60;;;18.00;43.00;;;;;;6128336;23;20178;-84
2023/10/08 03:49:54;;;;;;;0.65;0.50;;;18.00;43.10;;;;;;6175935;23;20159;-83
2023/10/08 03:52:27;;;;;;;0.63;0.40;;;18.00;43.10;;;;;;6151656;23;20537;-84
2023/10/08 03:55:13;;;;;;;0.45;0.40;;;18.00;43.10;;;;;;6130926;23;20143;-83
2023/10/08 03:57:41;;;;;;;0.90;0.40;;;18.00;43.20;;;;;;6112093;23;20158;-83
2023/10/08 04:00:13;;;;;;;0.70;0.40;;;18.00;43.30;;;;;;6151752;23;20182;-83
2023/10/08 04:02:41;;;;;;;0.85;0.52;;;18.00;43.20;;;;;;6153819;23;20186;-82
2023/10/08 04:05:27;;;;;;;0.75;0.43;;;18.00;43.40;;;;;;6102330;23;20147;-82
2023/10/08 04:13:28;;;;;;;0.63;0.57;;;18.00;43.30;;;;;;6154524;23;20217;-83
2023/10/08 04:15:58;;;;;;;0.55;0.40;;;18.00;43.40;;;;;;6148163;23;20158;-84
2023/10/08 04:18:29;;;;;;;0.65;0.40;;;18.00;43.30;;;;;;6096193;23;20241;-84
2023/10/08 04:21:00;;;;;;;0.90;0.50;;;18.00;43.40;;;;;;6097401;23;20186;-84
2023/10/08 04:23:26;;;;;;;0.30;0.30;;;18.00;43.40;;;;;;6147355;23;20154;-83
2023/10/08 04:25:54;;;;;;;0.70;0.50;;;17.90;43.30;;;;;;6122197;23;20143;-83
2023/10/08 04:28:20;;;;;;;0.43;0.32;;;17.90;43.60;;;;;;6115763;23;20154;-82
2023/10/08 04:30:50;;;;;;;0.50;0.50;;;18.00;43.50;;;;;;6137120;23;20139;-83
2023/10/08 04:33:16;;;;;;;0.70;0.40;;;18.00;43.40;;;;;;6138407;23;20124;-82
2023/10/08 04:35:55;;;;;;;0.93;0.57;;;18.00;43.50;;;;;;6161488;23;20177;-82
2023/10/08 04:38:25;;;;;;;0.68;0.40;;;18.00;43.60;;;;;;6161100;23;20151;-83
2023/10/08 04:40:52;;;;;;;1.02;0.40;;;17.90;43.60;;;;;;6140228;23;20905;-83
2023/10/08 04:43:24;;;;;;;0.47;0.40;;;18.00;43.40;;;;;;6117377;23;20155;-84
2023/10/08 04:45:52;;;;;;;0.80;0.47;;;18.00;43.50;;;;;;6116138;23;20569;-83
2023/10/08 04:48:20;;;;;;;0.68;0.55;;;18.00;43.50;;;;;;6113113;23;20499;-85
2023/10/08 04:53:35;;;;;;;0.50;0.40;;;18.00;43.60;;;;;;6165282;23;20143;-83
2023/10/08 04:56:18;;;;;;;0.80;0.40;;;17.90;43.70;;;;;;6138805;23;20147;-83
2023/10/08 04:58:46;;;;;;;0.55;0.40;;;18.00;43.60;;;;;;6078934;23;20154;-82
2023/10/08 05:01:18;;;;;;;0.65;0.40;;;18.00;43.70;;;;;;6115992;23;20146;-83
2023/10/08 05:07:00;;;;;;;0.63;0.50;;;17.90;43.60;;;;;;6166962;23;20498;-83
2023/10/08 05:09:22;;;;;;;0.93;0.50;;;17.90;43.70;;;;;;6168813;23;20624;-82
2023/10/08 05:14:45;;;;;;;0.55;0.40;;;17.90;43.70;;;;;;6149625;23;20580;-83
2023/10/08 05:17:11;;;;;;;0.73;0.40;;;18.00;43.80;;;;;;6149250;23;20200;-84
2023/10/08 05:19:48;;;;;;;0.90;0.55;;;17.90;43.70;;;;;;6145038;23;20187;-84
2023/10/08 05:22:43;;;;;;;0.43;0.40;;;17.90;43.60;;;;;;6146585;23;20134;-84
2023/10/08 05:25:24;;;;;;;0.80;0.50;;;17.90;43.70;;;;;;6152874;23;20161;-84
2023/10/08 05:27:56;;;;;;;0.88;0.60;;;17.90;43.90;;;;;;6079296;23;20155;-84
2023/10/08 05:30:38;;;;;;;0.95;0.43;;;17.90;43.70;;;;;;6161156;23;20142;-82
2023/10/08 05:33:06;;;;;;;0.50;0.45;;;17.90;43.80;;;;;;6070351;23;20205;-83
2023/10/08 05:35:49;;;;;;;0.45;0.40;;;17.90;43.90;;;;;;6136141;23;20311;-83
2023/10/08 05:38:22;;;;;;;1.00;0.50;;;17.90;44.00;;;;;;6162154;23;20194;-84
2023/10/08 05:41:27;;;;;;;0.55;0.40;;;17.90;43.80;;;;;;6115752;23;20216;-84
2023/10/08 05:43:55;;;;;;;0.75;0.47;;;17.90;43.90;;;;;;6188170;23;20436;-83
2023/10/08 05:46:39;;;;;;;0.90;0.60;;;17.90;44.00;;;;;;6193069;23;20131;-85
2023/10/08 05:54:24;;;;;;;0.68;0.50;;;18.00;44.10;;;;;;6144370;23;20222;-82
2023/10/08 05:57:35;;;;;;;0.82;0.50;;;18.00;43.80;;;;;;6167994;23;20130;-84
2023/10/08 06:03:07;;;;;;;0.68;0.57;;;18.00;44.00;;;;;;6127978;23;20189;-83
2023/10/08 06:05:23;;;;;;;0.50;0.40;;;18.00;44.00;;;;;;6168793;23;20150;-83
2023/10/08 06:08:10;;;;;;;0.50;0.50;;;18.00;43.90;;;;;;6166421;23;20128;-83
2023/10/08 06:10:43;;;;;;;0.47;0.40;;;18.00;44.00;;;;;;6191353;23;20130;-84
2023/10/08 06:13:16;;;;;;;0.75;0.43;;;18.00;44.10;;;;;;6118683;23;20143;-84
2023/10/08 06:15:48;;;;;;;0.60;0.50;;;18.00;43.90;;;;;;6141633;23;20137;-83
2023/10/08 06:18:16;;;;;;;1.08;0.60;;;18.00;44.30;;;;;;6142507;23;20186;-84
2023/10/08 06:20:46;;;;;;;0.40;0.30;;;18.00;44.10;;;;;;6140319;23;20171;-85
2023/10/08 06:23:18;;;;;;;1.63;0.70;;;18.00;44.20;;;;;;6190907;23;20209;-84
2023/10/08 06:25:47;;;;;;;0.77;0.40;;;18.00;44.60;;;;;;6117330;23;20150;-85
2023/10/08 06:28:20;;;;;;;0.43;0.40;;;18.10;44.20;;;;;;6165983;23;20139;-82
2023/10/08 06:30:46;;;;;;;0.52;0.30;;;18.10;44.20;;;;;;6118538;23;20158;-83
2023/10/08 06:33:13;;;;;;;1.10;0.47;;;18.10;44.20;;;;;;6117133;23;20586;-84
2023/10/08 06:35:44;;;;;;;0.68;0.60;;;18.10;44.70;;;;;;6143629;23;20143;-85
2023/10/08 06:38:14;;;;;;;2.22;0.40;;;18.10;44.20;;;;;;6171993;23;20181;-85
2023/10/08 06:40:42;;;;;;;0.60;0.50;;;18.10;44.30;;;;;;6145389;23;20167;-84
2023/10/08 06:43:14;;;;;;;0.47;0.30;;;18.10;44.10;;;;;;6144851;23;20139;-85
2023/10/08 06:45:46;;;;;;;0.68;0.47;;;18.10;44.00;;;;;;6146782;23;20123;-85
2023/10/08 06:48:20;;;;;;;0.80;0.50;;;18.20;43.90;;;;;;6096347;23;20146;-85
2023/10/08 06:50:48;;;;;;;0.85;0.40;;;18.20;43.70;;;;;;6126926;23;20154;-84
2023/10/08 06:53:18;;;;;;;0.43;0.30;;;18.20;43.50;;;;;;6146770;23;20506;-85
2023/10/08 06:55:44;;;;;;;1.08;0.47;;;18.20;43.30;;;;;;6146310;23;20150;-86
2023/10/08 06:58:11;;;;;;;0.65;0.30;;;18.20;43.40;;;;;;6167918;23;20191;-85
2023/10/08 07:00:39;;;;;;;0.50;0.30;;;18.10;43.30;;;;;;6139285;23;20258;-85
2023/10/08 07:03:10;;;;;;;0.52;0.43;;;18.10;43.10;;;;;;6162767;23;20567;-86
2023/10/08 07:05:36;;;;;;;0.40;0.38;;;18.10;43.20;;;;;;6139362;23;20137;-85
2023/10/08 07:08:06;;;;;;;0.32;0.32;;;18.10;43.20;;;;;;6139455;23;20226;-86
2023/10/08 07:10:34;;;;;;;0.50;0.38;;;18.20;43.60;;;;;;6139997;23;20143;-85
2023/10/08 07:13:02;;;;;;;0.85;0.47;;;18.30;43.90;;;;;;6066497;23;20151;-85
2023/10/08 07:15:30;;;;;;;0.77;0.40;;;18.30;43.50;;;;;;6116349;23;20490;-85
2023/10/08 07:18:09;;;;;;;0.80;0.35;;;18.30;43.60;;;;;;6135232;23;20194;-85
2023/10/08 07:20:39;;;;;;;0.68;0.40;;;18.30;43.40;;;;;;6091211;23;20649;-85
2023/10/08 07:23:18;;;;;;;0.73;0.40;;;18.30;42.70;;;;;;6161060;23;20222;-85
2023/10/08 07:25:53;;;;;;;0.63;0.45;;;18.20;43.20;;;;;;6133888;23;20174;-86
2023/10/08 07:28:25;;;;;;;0.50;0.40;;;18.30;43.20;;;;;;6088960;23;20253;-85
2023/10/08 07:30:52;;;;;;;0.60;0.35;;;18.30;42.70;;;;;;6109220;23;20207;-85
2023/10/08 07:33:19;;;;;;;1.05;0.30;;;18.30;42.90;;;;;;6110545;23;20148;-86
2023/10/08 07:36:11;;;;;;;0.70;0.40;;;18.30;42.90;;;;;;6139108;23;20136;-86
2023/10/08 07:38:32;;;;;;;0.57;0.40;;;18.30;43.00;;;;;;6139766;23;20151;-85
2023/10/08 07:41:00;;;;;;;1.00;0.30;;;18.30;43.00;;;;;;6156593;23;20194;-86
2023/10/08 07:43:32;;;;;;;0.90;0.40;;;18.30;43.20;;;;;;6109896;23;20493;-86
2023/10/08 07:46:00;;;;;;;0.82;0.40;;;18.30;43.10;;;;;;6135061;23;20152;-85
2023/10/08 07:48:32;;;;;;;2.33;0.50;;;18.30;43.10;;;;;;6109701;23;20160;-85
2023/10/08 07:50:58;;;;;;;0.20;0.20;;;18.40;43.20;;;;;;6109279;23;20155;-85
2023/10/08 07:53:24;;;;;;;0.28;0.28;;;18.40;43.00;;;;;;6135951;23;20175;-85
2023/10/08 07:55:53;;;;;;;0.40;0.30;;;18.30;43.10;;;;;;6111094;23;20151;-86
2023/10/08 07:58:19;;;;;;;1.15;0.30;;;18.40;43.20;;;;;;6140328;23;20139;-86
2023/10/08 08:00:54;;;;;;;1.60;0.25;;;18.40;42.90;;;;;;6137123;23;20174;-85
2023/10/08 08:03:21;;;;;;;2.63;0.40;;;18.40;43.10;;;;;;6113524;23;20459;-84
2023/10/08 08:05:52;;;;;;;3.45;0.50;;;18.40;43.10;;;;;;6135999;23;20219;-86
2023/10/08 08:08:21;;;;;;;0.30;0.30;;;18.40;43.00;;;;;;6085670;23;20313;-86
2023/10/08 08:10:47;;;;;;;0.50;0.30;;;18.40;43.00;;;;;;6132888;23;20205;-85
2023/10/08 08:13:20;;;;;;;0.95;0.25;;;18.30;43.00;;;;;;6133085;23;20511;-86
2023/10/08 08:15:50;;;;;;;0.45;0.30;;;18.30;43.50;;;;;;6133967;23;20148;-86
2023/10/08 08:18:22;;;;;;;0.50;0.28;;;18.30;42.80;;;;;;6156564;23;20558;-85
2023/10/08 08:20:48;;;;;;;2.42;0.60;;;18.30;42.70;;;;;;6133545;23;20175;-85
2023/10/08 08:23:21;;;;;;;0.30;0.30;;;18.30;42.60;;;;;;6132770;23;20196;-86
2023/10/08 08:26:06;;;;;;;0.43;0.30;;;18.40;42.60;;;;;;6158789;23;20182;-85
2023/10/08 08:28:32;;;;;;;1.50;0.30;;;18.40;42.50;;;;;;6159770;23;20128;-86
2023/10/08 08:31:13;;;;;;;0.60;0.30;;;18.40;42.50;;;;;;6135120;23;20140;-85
2023/10/08 08:36:20;;;;;;;1.30;0.40;;;18.40;42.40;;;;;;6134001;23;20556;-84
2023/10/08 08:38:47;;;;;;;2.38;0.20;;;18.40;42.50;;;;;;6131672;23;20128;-84
2023/10/08 08:41:20;;;;;;;0.32;0.30;;;18.40;42.40;;;;;;6157467;23;20218;-87
2023/10/08 08:43:48;;;;;;;1.65;0.30;;;18.30;42.40;;;;;;6132524;23;20205;-86
2023/10/08 08:46:13;;;;;;;0.20;0.20;;;18.30;42.30;;;;;;6108154;23;20454;-86
2023/10/08 08:48:40;;;;;;;0.30;0.30;;;18.30;42.20;;;;;;6156750;23;20158;-85
2023/10/08 08:51:06;;;;;;;0.98;0.30;;;18.40;42.30;;;;;;6107929;23;20182;-87
2023/10/08 08:53:34;;;;;;;0.35;0.20;;;18.30;42.20;;;;;;6136788;23;20128;-87
2023/10/08 08:56:00;;;;;;;0.45;0.20;;;18.40;42.10;;;;;;6135453;23;20135;-86
2023/10/08 08:58:25;;;;;;;0.40;0.30;;;18.30;42.10;;;;;;6161254;23;20131;-85
2023/10/08 09:00:52;;;;;;;0.70;0.30;;;18.30;42.20;;;;;;6159677;23;20603;-86
2023/10/08 09:03:19;;;;;;;0.57;0.40;;;18.40;42.30;;;;;;6134877;23;20187;-86
2023/10/08 09:05:50;;;;;;;0.32;0.30;;;18.30;42.30;;;;;;6135061;23;20166;-86
2023/10/08 09:08:18;;;;;;;1.98;0.30;;;18.30;42.30;;;;;;6113961;23;20614;-86
2023/10/08 09:10:52;;;;;;;1.60;0.25;;;18.30;42.40;;;;;;6112683;23;20686;-86
2023/10/08 09:13:24;;;;;;;0.30;0.30;;;18.30;42.40;;;;;;6115330;23;20148;-88
2023/10/08 09:15:51;;;;;;;0.68;0.25;;;18.30;42.30;;;;;;6114967;23;20163;-86
2023/10/08 09:18:17;;;;;;;0.57;0.25;;;18.30;42.30;;;;;;6137763;23;20477;-86
2023/10/08 09:20:47;;;;;;;0.55;0.30;;;18.30;42.10;;;;;;6136922;23;20179;-87
2023/10/08 09:23:17;;;;;;;0.75;0.30;;;18.30;42.00;;;;;;6113971;23;20462;-86
2023/10/08 09:25:49;;;;;;;0.55;0.30;;;18.40;42.00;;;;;;6113601;23;20146;-86
2023/10/08 09:28:16;;;;;;;0.40;0.20;;;18.40;41.90;;;;;;6114644;23;20211;-86
2023/10/08 09:30:44;;;;;;;0.30;0.20;;;18.40;41.80;;;;;;6138020;23;20210;-86
2023/10/08 09:33:12;;;;;;;0.52;0.40;;;18.50;41.80;;;;;;6113258;23;20148;-86
2023/10/08 09:35:39;;;;;;;1.60;0.30;;;18.40;41.80;;;;;;6137604;23;20241;-87
2023/10/08 09:38:10;;;;;;;0.45;0.30;;;18.40;41.70;;;;;;6137077;23;20134;-86
2023/10/08 09:40:37;;;;;;;0.93;0.20;;;18.40;41.80;;;;;;6135519;23;20206;-86
2023/10/08 09:43:04;;;;;;;0.30;0.20;;;18.40;41.80;;;;;;6137243;23;20147;-86
2023/10/08 09:45:31;;;;;;;0.90;0.30;;;18.50;42.00;;;;;;6138900;23;20151;-86
2023/10/08 09:47:59;;;;;;;0.28;0.22;;;18.40;41.90;;;;;;6139972;23;20139;-85
2023/10/08 09:50:28;;;;;;;0.47;0.40;;;18.40;42.00;;;;;;6138256;23;20174;-85
2023/10/08 09:53:04;;;;;;;0.28;0.28;;;18.40;42.10;;;;;;6135868;23;20151;-84
2023/10/08 09:55:33;;;;;;;0.47;0.30;;;18.40;42.10;;;;;;6136286;23;20166;-84
2023/10/08 09:58:01;;;;;;;0.50;0.38;;;18.40;42.00;;;;;;6088851;23;20223;-86
2023/10/08 10:00:30;;;;;;;0.45;0.30;;;18.40;41.90;;;;;;6137752;23;20164;-86
2023/10/08 10:03:07;;;;;;;0.40;0.40;;;18.40;41.90;;;;;;6138427;23;20540;-86
2023/10/08 10:05:35;;;;;;;0.80;0.30;;;18.50;42.10;;;;;;6087669;23;20555;-86
2023/10/08 10:08:05;;;;;;;0.43;0.28;;;18.40;42.00;;;;;;6114974;23;20139;-85
2023/10/08 10:10:34;;;;;;;0.63;0.30;;;18.50;42.10;;;;;;6115110;23;20198;-86
2023/10/08 10:13:02;;;;;;;3.17;0.30;;;18.50;42.10;;;;;;6112874;23;20479;-85
2023/10/08 10:15:30;;;;;;;0.20;0.20;;;18.50;42.10;;;;;;6136036;23;20144;-85
2023/10/08 10:18:08;;;;;;;0.35;0.20;;;18.40;41.90;;;;;;6111321;23;20198;-84
2023/10/08 10:20:34;;;;;;;0.25;0.20;;;18.50;41.80;;;;;;6112070;23;20174;-84
2023/10/08 10:23:00;;;;;;;0.50;0.30;;;18.40;41.70;;;;;;6133596;23;20144;-87
2023/10/08 10:25:41;;;;;;;0.77;0.30;;;18.50;41.70;;;;;;6110303;23;20206;-86
2023/10/08 10:28:25;;;;;;;0.40;0.30;;;18.40;41.70;;;;;;6111546;23;20151;-85
2023/10/08 10:30:51;;;;;;;0.88;0.40;;;18.40;41.70;;;;;;6133077;23;20135;-85
2023/10/08 10:33:17;;;;;;;0.47;0.28;;;18.40;41.70;;;;;;6134983;23;20147;-85
2023/10/08 10:35:51;;;;;;;0.55;0.22;;;18.40;41.70;;;;;;6135160;23;20152;-84
2023/10/08 10:38:20;;;;;;;0.30;0.20;;;18.40;41.70;;;;;;6110763;23;20238;-86
2023/10/08 10:41:07;;;;;;;0.28;0.25;;;18.40;41.60;;;;;;6114217;23;20175;-85
2023/10/08 10:43:35;;;;;;;0.52;0.17;;;18.30;41.60;;;;;;6117864;23;20255;-87
2023/10/08 10:48:39;;;;;;;0.55;0.20;;;18.40;41.60;;;;;;6136956;23;20143;-85
2023/10/08 10:51:08;;;;;;;1.35;0.30;;;18.40;41.50;;;;;;6132221;23;20235;-85
2023/10/08 10:53:44;;;;;;;0.20;0.20;;;18.30;41.50;;;;;;6083526;23;20177;-85
2023/10/08 10:56:19;;;;;;;1.40;0.20;;;18.40;41.60;;;;;;6114054;23;20230;-86
2023/10/08 10:58:53;;;;;;;0.30;0.30;;;18.40;41.50;;;;;;6108831;23;20193;-85
2023/10/08 11:01:26;;;;;;;0.40;0.20;;;18.40;41.40;;;;;;6110776;23;20155;-85
2023/10/08 11:03:57;;;;;;;0.30;0.30;;;18.30;41.30;;;;;;6109540;23;20159;-85
2023/10/08 11:06:25;;;;;;;0.47;0.30;;;18.40;41.30;;;;;;6156935;23;20206;-85
2023/10/08 11:08:52;;;;;;;0.25;0.20;;;18.40;41.30;;;;;;6132711;23;20147;-85
2023/10/08 11:11:28;;;;;;;0.40;0.30;;;18.40;41.30;;;;;;6108382;23;20136;-85
2023/10/08 11:14:00;;;;;;;0.98;0.22;;;18.30;41.20;;;;;;6111113;23;20148;-85
2023/10/08 11:16:27;;;;;;;0.20;0.20;;;18.30;41.20;;;;;;6083729;23;20186;-85
2023/10/08 11:19:06;;;;;;;0.32;0.30;;;18.30;41.10;;;;;;6108513;23;20207;-84
2023/10/08 11:21:57;;;;;;;0.17;0.17;;;18.30;41.20;;;;;;6172584;23;20194;-85
2023/10/08 11:24:33;;;;;;;0.30;0.30;;;18.30;41.10;;;;;;6111995;23;20515;-84
2023/10/08 11:27:17;;;;;;;0.40;0.25;;;18.30;41.10;;;;;;6110478;23;20148;-85
2023/10/08 11:29:57;;;;;;;0.30;0.20;;;18.30;41.80;;;;;;6096872;23;20152;-84
2023/10/08 11:32:48;;;;;;;0.28;0.25;;;18.30;41.10;;;;;;6085929;23;20506;-86
2023/10/08 11:35:22;;;;;;;0.20;0.20;;;18.40;41.10;;;;;;6135924;23;20190;-85
2023/10/08 11:37:50;;;;;;;0.43;0.20;;;18.40;41.00;;;;;;6155442;23;20138;-85
2023/10/08 11:40:29;;;;;;;0.32;0.20;;;18.30;41.00;;;;;;6129577;23;20171;-85
2023/10/08 11:42:58;;;;;;;0.73;0.30;;;18.40;41.00;;;;;;6080562;23;20151;-85
2023/10/08 11:45:38;;;;;;;0.30;0.25;;;18.30;41.00;;;;;;6129878;23;20136;-85
2023/10/08 11:48:11;;;;;;;1.05;0.30;;;18.30;41.00;;;;;;6129679;23;20161;-85
2023/10/08 11:50:40;;;;;;;0.30;0.30;;;18.30;40.90;;;;;;6107225;23;20243;-85
2023/10/08 11:53:11;;;;;;;0.28;0.20;;;18.30;41.00;;;;;;6083259;23;20190;-85
2023/10/08 11:55:38;;;;;;;0.20;0.20;;;18.30;40.90;;;;;;6110508;23;20176;-85
2023/10/08 11:58:17;;;;;;;2.30;0.20;;;18.40;41.00;;;;;;6110651;23;20147;-85
2023/10/08 12:00:44;;;;;;;0.28;0.28;;;18.40;40.90;;;;;;6115726;23;20625;-84
2023/10/08 12:03:11;;;;;;;1.63;0.28;;;18.40;40.90;;;;;;6157670;23;20230;-85
2023/10/08 12:05:47;;;;;;;0.82;0.28;;;18.30;40.90;;;;;;6112743;23;20175;-86
2023/10/08 12:08:16;;;;;;;0.20;0.20;;;18.40;40.90;;;;;;6144097;23;20134;-86
2023/10/08 12:10:46;;;;;;;0.30;0.20;;;18.40;40.90;;;;;;6119555;23;20144;-86
2023/10/08 12:13:18;;;;;;;0.30;0.20;;;18.40;40.90;;;;;;6117553;23;20162;-86
2023/10/08 12:15:44;;;;;;;1.75;0.40;;;18.40;40.90;;;;;;6114783;23;20162;-86
2023/10/08 12:18:15;;;;;;;0.20;0.20;;;18.40;40.80;;;;;;6141060;23;20190;-85
2023/10/08 12:20:46;;;;;;;0.80;0.32;;;18.30;40.80;;;;;;6142051;23;20164;-86
2023/10/08 12:23:19;;;;;;;0.20;0.20;;;18.30;40.80;;;;;;6140161;23;20139;-86
2023/10/08 12:25:51;;;;;;;0.20;0.10;;;18.40;40.70;;;;;;6118776;23;20162;-86
2023/10/08 12:28:18;;;;;;;0.20;0.20;;;18.40;40.80;;;;;;6117360;23;20154;-86
2023/10/08 12:30:45;;;;;;;1.15;0.40;;;18.30;40.70;;;;;;6114513;23;20151;-86
2023/10/08 12:33:12;;;;;;;0.22;0.20;;;18.40;40.70;;;;;;6116072;23;20167;-85
2023/10/08 12:35:40;;;;;;;0.45;0.20;;;18.30;40.70;;;;;;6164371;23;20127;-86
2023/10/08 12:38:06;;;;;;;0.20;0.20;;;18.40;40.70;;;;;;6164586;23;20207;-86
2023/10/08 12:43:10;;;;;;;0.30;0.30;;;18.40;40.60;;;;;;6143207;23;20503;-85
2023/10/08 12:45:37;;;;;;;0.20;0.20;;;18.40;40.60;;;;;;6164191;23;20131;-86
2023/10/08 12:48:04;;;;;;;0.20;0.20;;;18.40;40.60;;;;;;6140186;23;20155;-86
2023/10/08 12:50:42;;;;;;;0.52;0.30;;;18.40;40.50;;;;;;6115645;23;20151;-85
2023/10/08 12:53:11;;;;;;;0.30;0.20;;;18.40;40.60;;;;;;6146514;23;20178;-84
2023/10/08 12:55:39;;;;;;;0.20;0.20;;;18.40;40.70;;;;;;6143872;23;20139;-86
2023/10/08 12:58:09;;;;;;;0.35;0.20;;;18.40;40.60;;;;;;6122687;23;20207;-85
2023/10/08 13:00:41;;;;;;;0.60;0.30;;;18.40;40.60;;;;;;6117335;23;20202;-86
2023/10/08 13:03:15;;;;;;;1.30;0.20;;;18.30;40.50;;;;;;6143141;23;20222;-86
2023/10/08 13:05:44;;;;;;;0.52;0.20;;;18.30;40.40;;;;;;6123382;23;20140;-87
2023/10/08 13:08:13;;;;;;;0.22;0.20;;;18.40;40.50;;;;;;6144403;23;20223;-86
2023/10/08 13:10:43;;;;;;;0.20;0.20;;;18.40;40.70;;;;;;6121841;23;20226;-86
2023/10/08 13:13:15;;;;;;;0.38;0.15;;;18.40;40.30;;;;;;6141762;23;20267;-87
2023/10/08 13:15:42;;;;;;;0.30;0.20;;;18.40;40.30;;;;;;6165715;23;20243;-86
2023/10/08 13:18:09;;;;;;;0.55;0.22;;;18.40;40.40;;;;;;6140127;23;20626;-84
2023/10/08 13:20:40;;;;;;;0.20;0.20;;;18.50;40.50;;;;;;6140535;23;20210;-86
2023/10/08 13:23:09;;;;;;;0.20;0.10;;;18.50;40.40;;;;;;6116600;23;20140;-86
2023/10/08 13:25:39;;;;;;;0.50;0.20;;;18.40;40.40;;;;;;6139613;23;20218;-86
2023/10/08 13:28:07;;;;;;;0.57;0.20;;;18.50;40.40;;;;;;6119463;23;20151;-86
2023/10/08 13:30:32;;;;;;;1.20;0.40;;;18.50;40.50;;;;;;6139881;23;20159;-86
2023/10/08 13:32:59;;;;;;;0.85;0.22;;;18.50;40.50;;;;;;6137365;23;20381;-86
2023/10/08 13:35:26;;;;;;;1.50;0.35;;;18.40;40.30;;;;;;6113516;23;20171;-86
2023/10/08 13:37:52;;;;;;;1.08;0.38;;;18.40;40.30;;;;;;6139524;23;20136;-85
2023/10/08 13:40:32;;;;;;;1.70;0.30;;;18.40;40.30;;;;;;6114119;23;20187;-86